createdAt,value
2022-08-14T00:01:50.335Z,33.3
2022-08-14T00:08:42.004Z,33.31
2022-08-14T00:15:15.529Z,33.28
2022-08-14T00:21:57.623Z,33.33
2022-08-14T00:28:22.883Z,33.44
2022-08-14T00:35:01.225Z,33.46
2022-08-14T00:41:33.674Z,33.49
2022-08-14T00:48:01.155Z,33.54
2022-08-14T00:54:32.349Z,33.51
2022-08-14T01:01:09.290Z,33.58
2022-08-14T01:07:47.461Z,33.61
2022-08-14T01:14:28.981Z,33.61
2022-08-14T01:20:57.438Z,33.7
2022-08-14T01:27:28.348Z,33.68
2022-08-14T01:35:16.749Z,33.72
2022-08-14T01:40:50.541Z,33.68
2022-08-14T01:47:37.183Z,33.76
2022-08-14T01:54:09.872Z,33.77
2022-08-14T02:00:51.002Z,33.73
2022-08-14T02:07:27.159Z,33.74
2022-08-14T02:14:14.589Z,33.69
2022-08-14T02:20:55.748Z,33.71
2022-08-14T02:28:19.897Z,33.74
2022-08-14T02:34:27.824Z,33.71
2022-08-14T02:40:59.563Z,33.62
2022-08-14T02:47:32.401Z,33.51
2022-08-14T02:54:07.248Z,33.49
2022-08-14T03:00:50.227Z,33.31
2022-08-14T03:07:30.309Z,33.53
2022-08-14T03:13:52.372Z,33.52
2022-08-14T03:20:27.845Z,33.5
2022-08-14T03:27:11.021Z,33.33
2022-08-14T03:33:44.624Z,33.34
2022-08-14T03:40:18.613Z,33.22
2022-08-14T03:46:53.207Z,33.24
2022-08-14T03:53:34.194Z,33.24
2022-08-14T04:00:03.683Z,33.26
2022-08-14T04:06:42.644Z,33.4
2022-08-14T04:13:31.603Z,33.42
2022-08-14T04:20:06.046Z,33.52
2022-08-14T04:26:44.765Z,33.5
2022-08-14T04:33:22.519Z,33.45
2022-08-14T04:39:56.861Z,33.47
2022-08-14T04:46:54.905Z,33.44
2022-08-14T04:53:11.547Z,33.41
2022-08-14T04:59:47.225Z,33.45
2022-08-14T05:06:34.707Z,33.47
2022-08-14T05:13:11.982Z,33.44
2022-08-14T05:20:33.584Z,33.42
2022-08-14T05:26:35.986Z,33.43
2022-08-14T05:33:09.290Z,33.4
2022-08-14T05:39:41.261Z,33.48
2022-08-14T05:46:09.568Z,33.4
2022-08-14T05:52:41.909Z,33.42
2022-08-14T05:59:07.979Z,33.44
2022-08-14T06:05:39.326Z,33.4
2022-08-14T06:12:31.217Z,33.39
2022-08-14T06:19:05.461Z,33.34
2022-08-14T06:25:39.105Z,33.38
2022-08-14T06:32:37.117Z,33.33
2022-08-14T06:39:02.231Z,33.31
2022-08-14T06:45:31.016Z,33.37
2022-08-14T06:52:02.588Z,33.33
2022-08-14T06:58:31.703Z,33.28
2022-08-14T07:05:07.156Z,33.23
2022-08-14T07:11:44.774Z,33.28
2022-08-14T07:18:26.301Z,33.21
2022-08-14T07:25:04.533Z,33.16
2022-08-14T07:31:43.755Z,33.22
2022-08-14T07:38:17.793Z,33.17
2022-08-14T07:44:48.912Z,33.03
2022-08-14T07:51:34.565Z,33.12
2022-08-14T07:58:21.250Z,33.17
2022-08-14T08:05:04.843Z,33.12
2022-08-14T08:11:57.825Z,33.08
2022-08-14T08:18:31.100Z,33.09
2022-08-14T08:25:02.607Z,33.09
2022-08-14T08:31:52.403Z,33.06
2022-08-14T08:39:16.195Z,33.08
2022-08-14T08:45:58.803Z,33.11
2022-08-14T08:52:51.605Z,33.15
2022-08-14T08:59:34.922Z,33.14
2022-08-14T09:06:54.483Z,33.06
2022-08-14T09:13:17.146Z,33.04
2022-08-14T09:19:46.475Z,33.02
2022-08-14T09:26:28.919Z,33.08
2022-08-14T09:33:13.136Z,33.04
2022-08-14T09:40:22.312Z,33.12
2022-08-14T09:47:34.012Z,33.09
2022-08-14T09:54:31.095Z,33.04
2022-08-14T10:01:32.221Z,33.08
2022-08-14T10:08:26.839Z,33
2022-08-14T10:15:24.208Z,33.01
2022-08-14T10:23:11.598Z,33.07
2022-08-14T10:29:23.216Z,33.01
2022-08-14T10:36:19.773Z,33.04
2022-08-14T10:43:18.705Z,33.1
2022-08-14T10:50:17.179Z,32.99
2022-08-14T10:57:07.825Z,32.81
2022-08-14T11:03:55.520Z,32.88
2022-08-14T11:10:33.984Z,32.74
2022-08-14T11:17:24.245Z,32.61
2022-08-14T11:24:00.818Z,32.82
2022-08-14T11:30:49.726Z,32.78
2022-08-14T11:37:33.855Z,32.5
2022-08-14T11:44:46.134Z,32.65
2022-08-14T11:51:35.869Z,32.74
2022-08-14T11:58:38.235Z,32.72
2022-08-14T12:05:32.684Z,32.73
2022-08-14T12:12:35.373Z,32.69
2022-08-14T12:19:35.049Z,32.7
2022-08-14T12:26:41.853Z,32.66
2022-08-14T12:33:35.226Z,32.65
2022-08-14T12:40:41.885Z,32.62
2022-08-14T12:47:37.255Z,32.58
2022-08-14T12:54:34.467Z,32.59
2022-08-14T13:01:26.600Z,32.48
2022-08-14T13:08:03.589Z,32.46
2022-08-14T13:14:52.675Z,32.42
2022-08-14T13:21:59.145Z,32.5
2022-08-14T13:28:30.227Z,32.44
2022-08-14T13:35:18.368Z,32.41
2022-08-14T13:41:57.639Z,32.37
2022-08-14T13:48:36.404Z,32.43
2022-08-14T13:55:14.530Z,32.47
2022-08-14T14:02:02.802Z,32.5
2022-08-14T14:08:47.089Z,32.53
2022-08-14T14:15:28.746Z,32.64
2022-08-14T14:22:10.246Z,32.62
2022-08-14T14:28:55.134Z,32.71
2022-08-14T14:35:39.986Z,32.72
2022-08-14T14:42:32.075Z,32.52
2022-08-14T14:49:10.494Z,32.38
2022-08-14T14:56:47.093Z,32.37
2022-08-14T15:02:30.761Z,32.36
2022-08-14T15:09:09.226Z,32.53
2022-08-14T15:15:39.876Z,32.33
2022-08-14T15:22:11.249Z,32.31
2022-08-14T15:28:40.769Z,32.45
2022-08-14T15:35:17.168Z,32.34
2022-08-14T15:42:01.289Z,32.4
2022-08-14T15:48:29.868Z,32.38
2022-08-14T15:55:00.311Z,32.44
2022-08-14T16:01:54.037Z,32.45
2022-08-14T16:08:32.797Z,32.45
2022-08-14T16:14:59.284Z,32.48
2022-08-14T16:21:33.378Z,32.38
2022-08-14T16:28:27.314Z,32.47
2022-08-14T16:35:12.885Z,32.44
2022-08-14T16:41:50.962Z,32.56
2022-08-14T16:48:55.888Z,32.56
2022-08-14T16:55:30.940Z,32.57
2022-08-14T17:02:34.571Z,32.59
2022-08-14T17:09:18.115Z,32.67
2022-08-14T17:16:40.819Z,32.7
2022-08-14T17:23:16.423Z,32.7
2022-08-14T17:30:03.285Z,32.78
2022-08-14T17:36:50.402Z,32.77
2022-08-14T17:43:55.624Z,32.87
2022-08-14T17:50:59.127Z,32.84
2022-08-14T17:57:20.429Z,32.85
2022-08-14T18:03:54.075Z,32.88
2022-08-14T18:10:52.885Z,32.84
2022-08-14T18:17:18.265Z,32.89
2022-08-14T18:23:56.512Z,32.96
2022-08-14T18:30:42.338Z,33.02
2022-08-14T18:37:40.863Z,32.59
2022-08-14T18:44:28.222Z,32.52
2022-08-14T18:51:45.081Z,32.78
2022-08-14T18:58:34.787Z,32.77
2022-08-14T19:05:24.884Z,32.81
2022-08-14T19:12:15.293Z,32.77
2022-08-14T19:19:29.977Z,32.81
2022-08-14T19:26:51.875Z,32.91
2022-08-14T19:33:35.524Z,32.92
2022-08-14T19:40:22.632Z,32.87
2022-08-14T19:47:21.633Z,32.77
2022-08-14T19:54:27.671Z,32.69
2022-08-14T20:01:25.503Z,32.74
2022-08-14T20:09:06.588Z,32.78
2022-08-14T20:15:21.947Z,32.72
2022-08-14T20:22:36.080Z,32.96
2022-08-14T20:29:19.849Z,33.05
2022-08-14T20:36:04.574Z,33.15
2022-08-14T20:43:04.055Z,33.17
2022-08-14T20:49:45.867Z,33.21
2022-08-14T20:56:42.934Z,33.27
2022-08-14T21:03:16.619Z,33.27
2022-08-14T21:10:05.838Z,33.37
2022-08-14T21:16:58.703Z,33.42
2022-08-14T21:23:33.129Z,33.21
2022-08-14T21:30:09.183Z,33.44
2022-08-14T21:36:47.089Z,33.22
2022-08-14T21:43:25.843Z,33.18
2022-08-14T21:49:54.608Z,33.31
2022-08-14T21:56:39.519Z,33.39
2022-08-14T22:03:24.564Z,33.44
2022-08-14T22:09:56.014Z,33.3
2022-08-14T22:17:00.437Z,33.41
2022-08-14T22:23:17.637Z,33.14
2022-08-14T22:29:58.946Z,33.48
2022-08-14T22:36:42.128Z,33.55
2022-08-14T22:43:18.915Z,33.56
2022-08-14T22:50:29.732Z,33.47
2022-08-14T22:56:43.307Z,33.4
2022-08-14T23:03:27.107Z,33
2022-08-14T23:10:33.241Z,33.47
2022-08-14T23:16:43.738Z,33.37
2022-08-14T23:23:23.710Z,33.42
2022-08-14T23:29:54.001Z,33.35
2022-08-14T23:36:37.482Z,33.38
2022-08-14T23:43:21.180Z,33.39
2022-08-14T23:49:57.112Z,33.37
2022-08-14T23:56:45.335Z,33.32
